sensor_id;sensor_type;location;lat;lon;timestamp;temperature;humidity
4376;DHT22;2202;50.866;12.750;2023-06-14T00:00:16;11.70;80.80
4376;DHT22;2202;50.866;12.750;2023-06-14T00:02:43;11.70;81.00
4376;DHT22;2202;50.866;12.750;2023-06-14T00:05:10;11.70;80.80
4376;DHT22;2202;50.866;12.750;2023-06-14T00:07:38;11.60;81.00
4376;DHT22;2202;50.866;12.750;2023-06-14T00:10:09;11.60;81.60
4376;DHT22;2202;50.866;12.750;2023-06-14T00:12:36;11.60;82.00
4376;DHT22;2202;50.866;12.750;2023-06-14T00:15:07;11.50;82.60
4376;DHT22;2202;50.866;12.750;2023-06-14T00:17:35;11.50;82.60
4376;DHT22;2202;50.866;12.750;2023-06-14T00:20:06;11.50;82.80
4376;DHT22;2202;50.866;12.750;2023-06-14T00:22:33;11.40;83.20
4376;DHT22;2202;50.866;12.750;2023-06-14T00:25:02;11.40;83.40
4376;DHT22;2202;50.866;12.750;2023-06-14T00:27:29;11.30;83.40
4376;DHT22;2202;50.866;12.750;2023-06-14T00:29:56;11.30;83.80
4376;DHT22;2202;50.866;12.750;2023-06-14T00:32:25;11.20;83.80
4376;DHT22;2202;50.866;12.750;2023-06-14T00:34:53;11.20;83.80
4376;DHT22;2202;50.866;12.750;2023-06-14T00:37:20;11.20;84.00
4376;DHT22;2202;50.866;12.750;2023-06-14T00:39:47;11.10;84.60
4376;DHT22;2202;50.866;12.750;2023-06-14T00:42:23;11.10;84.40
4376;DHT22;2202;50.866;12.750;2023-06-14T00:44:50;11.00;85.00
4376;DHT22;2202;50.866;12.750;2023-06-14T00:47:17;10.90;85.40
4376;DHT22;2202;50.866;12.750;2023-06-14T00:49:47;10.90;86.40
4376;DHT22;2202;50.866;12.750;2023-06-14T00:52:14;10.90;86.80
4376;DHT22;2202;50.866;12.750;2023-06-14T00:54:42;10.80;86.80
4376;DHT22;2202;50.866;12.750;2023-06-14T00:57:10;10.80;87.80
4376;DHT22;2202;50.866;12.750;2023-06-14T00:59:42;10.80;88.00
4376;DHT22;2202;50.866;12.750;2023-06-14T01:02:09;10.80;88.00
4376;DHT22;2202;50.866;12.750;2023-06-14T01:04:36;10.80;88.00
4376;DHT22;2202;50.866;12.750;2023-06-14T01:07:17;10.80;87.40
4376;DHT22;2202;50.866;12.750;2023-06-14T01:09:52;10.80;87.60
4376;DHT22;2202;50.866;12.750;2023-06-14T01:12:27;10.80;88.00
4376;DHT22;2202;50.866;12.750;2023-06-14T01:14:57;10.80;87.80
4376;DHT22;2202;50.866;12.750;2023-06-14T01:17:26;10.70;88.20
4376;DHT22;2202;50.866;12.750;2023-06-14T01:19:57;10.70;88.00
4376;DHT22;2202;50.866;12.750;2023-06-14T01:22:27;10.70;88.00
4376;DHT22;2202;50.866;12.750;2023-06-14T01:24:55;10.60;88.60
4376;DHT22;2202;50.866;12.750;2023-06-14T01:27:23;10.60;88.60
4376;DHT22;2202;50.866;12.750;2023-06-14T01:29:55;10.60;88.60
4376;DHT22;2202;50.866;12.750;2023-06-14T01:32:23;10.60;88.40
4376;DHT22;2202;50.866;12.750;2023-06-14T01:34:51;10.60;88.20
4376;DHT22;2202;50.866;12.750;2023-06-14T01:37:19;10.60;88.40
4376;DHT22;2202;50.866;12.750;2023-06-14T01:39:47;10.60;88.40
4376;DHT22;2202;50.866;12.750;2023-06-14T01:42:16;10.60;88.60
4376;DHT22;2202;50.866;12.750;2023-06-14T01:44:44;10.50;89.00
4376;DHT22;2202;50.866;12.750;2023-06-14T01:47:12;10.50;89.20
4376;DHT22;2202;50.866;12.750;2023-06-14T01:49:39;10.50;89.20
4376;DHT22;2202;50.866;12.750;2023-06-14T01:52:06;10.40;89.20
4376;DHT22;2202;50.866;12.750;2023-06-14T01:54:35;10.40;89.60
4376;DHT22;2202;50.866;12.750;2023-06-14T01:57:07;10.40;89.80
4376;DHT22;2202;50.866;12.750;2023-06-14T01:59:35;10.40;89.60
4376;DHT22;2202;50.866;12.750;2023-06-14T02:02:03;10.30;89.40
4376;DHT22;2202;50.866;12.750;2023-06-14T02:04:30;10.30;89.80
4376;DHT22;2202;50.866;12.750;2023-06-14T02:06:57;10.30;90.00
4376;DHT22;2202;50.866;12.750;2023-06-14T02:09:24;10.30;90.10
4376;DHT22;2202;50.866;12.750;2023-06-14T02:11:51;10.30;90.20
4376;DHT22;2202;50.866;12.750;2023-06-14T02:14:17;10.30;90.30
4376;DHT22;2202;50.866;12.750;2023-06-14T02:16:46;10.30;90.10
4376;DHT22;2202;50.866;12.750;2023-06-14T02:19:14;10.20;90.20
4376;DHT22;2202;50.866;12.750;2023-06-14T02:21:41;10.20;90.20
4376;DHT22;2202;50.866;12.750;2023-06-14T02:24:08;10.20;90.20
4376;DHT22;2202;50.866;12.750;2023-06-14T02:26:35;10.20;90.20
4376;DHT22;2202;50.866;12.750;2023-06-14T02:29:03;10.20;90.20
4376;DHT22;2202;50.866;12.750;2023-06-14T02:31:31;10.20;90.20
4376;DHT22;2202;50.866;12.750;2023-06-14T02:33:59;10.20;90.20
4376;DHT22;2202;50.866;12.750;2023-06-14T02:36:26;10.10;90.00
4376;DHT22;2202;50.866;12.750;2023-06-14T02:38:53;10.10;90.20
4376;DHT22;2202;50.866;12.750;2023-06-14T02:41:20;10.10;90.40
4376;DHT22;2202;50.866;12.750;2023-06-14T02:46:16;9.90;90.60
4376;DHT22;2202;50.866;12.750;2023-06-14T02:48:43;9.90;90.60
4376;DHT22;2202;50.866;12.750;2023-06-14T02:51:12;9.80;90.60
4376;DHT22;2202;50.866;12.750;2023-06-14T02:53:38;9.80;90.50
4376;DHT22;2202;50.866;12.750;2023-06-14T02:56:06;9.80;90.30
4376;DHT22;2202;50.866;12.750;2023-06-14T02:58:33;9.80;90.30
4376;DHT22;2202;50.866;12.750;2023-06-14T03:01:00;9.80;90.80
4376;DHT22;2202;50.866;12.750;2023-06-14T03:03:29;9.70;91.00
4376;DHT22;2202;50.866;12.750;2023-06-14T03:05:56;9.70;91.30
4376;DHT22;2202;50.866;12.750;2023-06-14T03:08:24;9.60;91.40
4376;DHT22;2202;50.866;12.750;2023-06-14T03:10:53;9.60;91.40
4376;DHT22;2202;50.866;12.750;2023-06-14T03:13:21;9.60;91.60
4376;DHT22;2202;50.866;12.750;2023-06-14T03:15:49;9.60;91.90
4376;DHT22;2202;50.866;12.750;2023-06-14T03:18:16;9.60;92.10
4376;DHT22;2202;50.866;12.750;2023-06-14T03:20:43;9.50;92.00
4376;DHT22;2202;50.866;12.750;2023-06-14T03:23:11;9.50;92.10
4376;DHT22;2202;50.866;12.750;2023-06-14T03:25:40;9.50;92.10
4376;DHT22;2202;50.866;12.750;2023-06-14T03:28:07;9.50;92.30
4376;DHT22;2202;50.866;12.750;2023-06-14T03:30:34;9.50;92.20
4376;DHT22;2202;50.866;12.750;2023-06-14T03:33:01;9.50;92.30
4376;DHT22;2202;50.866;12.750;2023-06-14T03:35:28;9.60;92.30
4376;DHT22;2202;50.866;12.750;2023-06-14T03:37:55;9.60;92.30
4376;DHT22;2202;50.866;12.750;2023-06-14T03:40:22;9.60;92.40
4376;DHT22;2202;50.866;12.750;2023-06-14T03:42:52;9.70;92.20
4376;DHT22;2202;50.866;12.750;2023-06-14T03:45:19;9.70;92.10
4376;DHT22;2202;50.866;12.750;2023-06-14T03:47:46;9.70;92.10
4376;DHT22;2202;50.866;12.750;2023-06-14T03:50:13;9.80;91.90
4376;DHT22;2202;50.866;12.750;2023-06-14T03:52:40;9.80;91.90
4376;DHT22;2202;50.866;12.750;2023-06-14T03:55:09;9.80;91.90
4376;DHT22;2202;50.866;12.750;2023-06-14T03:57:38;9.80;91.90
4376;DHT22;2202;50.866;12.750;2023-06-14T04:00:08;9.90;91.80
4376;DHT22;2202;50.866;12.750;2023-06-14T04:02:36;9.90;91.80
4376;DHT22;2202;50.866;12.750;2023-06-14T04:05:03;9.90;91.80
4376;DHT22;2202;50.866;12.750;2023-06-14T04:07:31;9.90;91.80
4376;DHT22;2202;50.866;12.750;2023-06-14T04:09:57;9.90;91.80
4376;DHT22;2202;50.866;12.750;2023-06-14T04:12:24;10.00;91.70
4376;DHT22;2202;50.866;12.750;2023-06-14T04:14:51;10.00;91.60
4376;DHT22;2202;50.866;12.750;2023-06-14T04:17:19;10.00;91.70
4376;DHT22;2202;50.866;12.750;2023-06-14T04:19:46;10.00;91.60
4376;DHT22;2202;50.866;12.750;2023-06-14T04:22:13;10.10;91.60
4376;DHT22;2202;50.866;12.750;2023-06-14T04:24:40;10.10;91.70
4376;DHT22;2202;50.866;12.750;2023-06-14T04:27:08;10.10;91.70
4376;DHT22;2202;50.866;12.750;2023-06-14T04:29:34;10.20;91.70
4376;DHT22;2202;50.866;12.750;2023-06-14T04:32:01;10.20;91.70
4376;DHT22;2202;50.866;12.750;2023-06-14T04:34:30;10.20;91.40
4376;DHT22;2202;50.866;12.750;2023-06-14T04:36:57;10.30;91.20
4376;DHT22;2202;50.866;12.750;2023-06-14T04:39:25;10.30;90.90
4376;DHT22;2202;50.866;12.750;2023-06-14T04:41:53;10.30;90.90
4376;DHT22;2202;50.866;12.750;2023-06-14T04:44:23;10.40;91.00
4376;DHT22;2202;50.866;12.750;2023-06-14T04:46:55;10.30;91.10
4376;DHT22;2202;50.866;12.750;2023-06-14T04:49:24;10.40;91.20
4376;DHT22;2202;50.866;12.750;2023-06-14T04:51:56;10.40;91.20
4376;DHT22;2202;50.866;12.750;2023-06-14T04:54:24;10.40;90.90
4376;DHT22;2202;50.866;12.750;2023-06-14T04:56:51;10.40;91.00
4376;DHT22;2202;50.866;12.750;2023-06-14T04:59:18;10.50;90.90
4376;DHT22;2202;50.866;12.750;2023-06-14T05:01:45;10.50;90.70
4376;DHT22;2202;50.866;12.750;2023-06-14T05:04:13;10.60;90.70
4376;DHT22;2202;50.866;12.750;2023-06-14T05:06:41;10.60;90.70
4376;DHT22;2202;50.866;12.750;2023-06-14T05:09:09;10.70;90.90
4376;DHT22;2202;50.866;12.750;2023-06-14T05:11:36;10.70;90.60
4376;DHT22;2202;50.866;12.750;2023-06-14T05:14:03;10.80;90.50
4376;DHT22;2202;50.866;12.750;2023-06-14T05:16:29;10.80;90.20
4376;DHT22;2202;50.866;12.750;2023-06-14T05:18:56;10.80;90.10
4376;DHT22;2202;50.866;12.750;2023-06-14T05:21:23;10.80;90.10
4376;DHT22;2202;50.866;12.750;2023-06-14T05:23:51;10.80;90.20
4376;DHT22;2202;50.866;12.750;2023-06-14T05:26:19;10.80;90.30
4376;DHT22;2202;50.866;12.750;2023-06-14T05:28:45;10.90;90.30
4376;DHT22;2202;50.866;12.750;2023-06-14T05:31:12;10.90;90.50
4376;DHT22;2202;50.866;12.750;2023-06-14T05:33:39;11.00;90.40
4376;DHT22;2202;50.866;12.750;2023-06-14T05:36:06;11.00;89.80
4376;DHT22;2202;50.866;12.750;2023-06-14T05:38:33;11.00;90.00
4376;DHT22;2202;50.866;12.750;2023-06-14T05:41:00;11.10;89.80
4376;DHT22;2202;50.866;12.750;2023-06-14T05:43:28;11.20;89.80
4376;DHT22;2202;50.866;12.750;2023-06-14T05:45:55;11.20;90.00
4376;DHT22;2202;50.866;12.750;2023-06-14T05:48:21;11.30;89.80
4376;DHT22;2202;50.866;12.750;2023-06-14T05:50:48;11.40;90.00
4376;DHT22;2202;50.866;12.750;2023-06-14T05:53:15;11.60;89.00
4376;DHT22;2202;50.866;12.750;2023-06-14T05:55:42;11.60;89.20
4376;DHT22;2202;50.866;12.750;2023-06-14T05:58:09;11.70;88.20
4376;DHT22;2202;50.866;12.750;2023-06-14T06:00:40;11.80;87.60
4376;DHT22;2202;50.866;12.750;2023-06-14T06:03:07;11.80;87.80
4376;DHT22;2202;50.866;12.750;2023-06-14T06:05:34;11.90;88.00
4376;DHT22;2202;50.866;12.750;2023-06-14T06:08:01;12.00;87.80
4376;DHT22;2202;50.866;12.750;2023-06-14T06:10:28;12.20;87.60
4376;DHT22;2202;50.866;12.750;2023-06-14T06:12:55;12.40;87.20
4376;DHT22;2202;50.866;12.750;2023-06-14T06:15:22;12.50;84.40
4376;DHT22;2202;50.866;12.750;2023-06-14T06:17:50;12.60;84.80
4376;DHT22;2202;50.866;12.750;2023-06-14T06:20:17;12.70;84.40
4376;DHT22;2202;50.866;12.750;2023-06-14T06:22:44;12.90;84.60
4376;DHT22;2202;50.866;12.750;2023-06-14T06:25:11;13.10;83.40
4376;DHT22;2202;50.866;12.750;2023-06-14T06:27:38;13.30;82.00
4376;DHT22;2202;50.866;12.750;2023-06-14T06:30:07;13.40;80.80
4376;DHT22;2202;50.866;12.750;2023-06-14T06:32:34;13.70;79.00
4376;DHT22;2202;50.866;12.750;2023-06-14T06:35:02;13.80;77.80
4376;DHT22;2202;50.866;12.750;2023-06-14T06:37:31;14.00;77.00
4376;DHT22;2202;50.866;12.750;2023-06-14T06:39:58;14.30;77.80
4376;DHT22;2202;50.866;12.750;2023-06-14T06:42:25;14.60;77.40
4376;DHT22;2202;50.866;12.750;2023-06-14T06:44:52;14.90;73.00
4376;DHT22;2202;50.866;12.750;2023-06-14T06:47:19;14.90;73.00
4376;DHT22;2202;50.866;12.750;2023-06-14T06:49:46;14.90;73.00
4376;DHT22;2202;50.866;12.750;2023-06-14T06:52:14;15.20;71.80
4376;DHT22;2202;50.866;12.750;2023-06-14T06:54:41;15.50;73.40
4376;DHT22;2202;50.866;12.750;2023-06-14T06:57:08;15.90;68.40
4376;DHT22;2202;50.866;12.750;2023-06-14T06:59:36;16.30;67.80
4376;DHT22;2202;50.866;12.750;2023-06-14T07:02:03;16.60;65.20
4376;DHT22;2202;50.866;12.750;2023-06-14T07:04:30;17.00;67.00
4376;DHT22;2202;50.866;12.750;2023-06-14T07:06:57;17.50;62.20
4376;DHT22;2202;50.866;12.750;2023-06-14T07:09:26;17.90;61.20
4376;DHT22;2202;50.866;12.750;2023-06-14T07:11:52;18.20;58.00
4376;DHT22;2202;50.866;12.750;2023-06-14T07:14:19;18.30;60.60
4376;DHT22;2202;50.866;12.750;2023-06-14T07:16:48;18.40;57.30
4376;DHT22;2202;50.866;12.750;2023-06-14T07:19:15;18.60;58.90
4376;DHT22;2202;50.866;12.750;2023-06-14T07:21:42;18.80;59.20
4376;DHT22;2202;50.866;12.750;2023-06-14T07:24:09;19.10;56.00
4376;DHT22;2202;50.866;12.750;2023-06-14T07:26:37;18.90;54.60
4376;DHT22;2202;50.866;12.750;2023-06-14T07:29:04;18.70;55.70
4376;DHT22;2202;50.866;12.750;2023-06-14T07:31:31;18.60;58.30
4376;DHT22;2202;50.866;12.750;2023-06-14T07:33:58;18.90;58.00
4376;DHT22;2202;50.866;12.750;2023-06-14T07:36:25;19.00;54.30
4376;DHT22;2202;50.866;12.750;2023-06-14T07:38:51;18.90;55.70
4376;DHT22;2202;50.866;12.750;2023-06-14T07:41:19;19.10;56.60
4376;DHT22;2202;50.866;12.750;2023-06-14T07:43:47;19.40;55.30
4376;DHT22;2202;50.866;12.750;2023-06-14T07:46:14;19.70;54.10
4376;DHT22;2202;50.866;12.750;2023-06-14T07:48:41;19.50;53.50
4376;DHT22;2202;50.866;12.750;2023-06-14T07:51:08;19.60;54.40
4376;DHT22;2202;50.866;12.750;2023-06-14T07:53:35;19.70;53.40
4376;DHT22;2202;50.866;12.750;2023-06-14T07:56:02;20.00;52.80
4376;DHT22;2202;50.866;12.750;2023-06-14T07:58:29;20.20;51.40
4376;DHT22;2202;50.866;12.750;2023-06-14T08:00:57;20.40;51.10
4376;DHT22;2202;50.866;12.750;2023-06-14T08:03:25;20.60;49.80
4376;DHT22;2202;50.866;12.750;2023-06-14T08:05:52;20.50;50.70
4376;DHT22;2202;50.866;12.750;2023-06-14T08:08:18;20.30;51.90
4376;DHT22;2202;50.866;12.750;2023-06-14T08:10:45;20.50;49.30
4376;DHT22;2202;50.866;12.750;2023-06-14T08:13:12;20.70;52.70
4376;DHT22;2202;50.866;12.750;2023-06-14T08:15:39;20.80;47.70
4376;DHT22;2202;50.866;12.750;2023-06-14T08:18:07;20.80;46.40
4376;DHT22;2202;50.866;12.750;2023-06-14T08:20:34;20.60;48.90
4376;DHT22;2202;50.866;12.750;2023-06-14T08:23:02;20.40;47.70
4376;DHT22;2202;50.866;12.750;2023-06-14T08:25:29;20.40;47.00
4376;DHT22;2202;50.866;12.750;2023-06-14T08:27:56;20.30;48.00
4376;DHT22;2202;50.866;12.750;2023-06-14T08:30:23;20.20;47.70
4376;DHT22;2202;50.866;12.750;2023-06-14T08:32:50;20.00;47.00
4376;DHT22;2202;50.866;12.750;2023-06-14T08:35:18;20.00;47.30
4376;DHT22;2202;50.866;12.750;2023-06-14T08:37:45;20.00;49.30
4376;DHT22;2202;50.866;12.750;2023-06-14T08:40:19;20.30;48.60
4376;DHT22;2202;50.866;12.750;2023-06-14T08:42:50;20.60;47.90
4376;DHT22;2202;50.866;12.750;2023-06-14T08:45:17;20.90;44.50
4376;DHT22;2202;50.866;12.750;2023-06-14T08:47:44;20.80;47.20
4376;DHT22;2202;50.866;12.750;2023-06-14T08:50:11;20.70;44.80
4376;DHT22;2202;50.866;12.750;2023-06-14T08:52:45;20.40;49.80
4376;DHT22;2202;50.866;12.750;2023-06-14T08:55:16;20.90;47.00
4376;DHT22;2202;50.866;12.750;2023-06-14T08:57:46;21.10;42.20
4376;DHT22;2202;50.866;12.750;2023-06-14T09:00:14;21.30;43.80
4376;DHT22;2202;50.866;12.750;2023-06-14T09:02:41;21.60;40.40
4376;DHT22;2202;50.866;12.750;2023-06-14T09:05:09;21.50;39.00
4376;DHT22;2202;50.866;12.750;2023-06-14T09:07:36;21.40;40.20
4376;DHT22;2202;50.866;12.750;2023-06-14T09:10:09;21.10;41.50
4376;DHT22;2202;50.866;12.750;2023-06-14T09:12:36;21.30;39.00
4376;DHT22;2202;50.866;12.750;2023-06-14T09:15:04;21.20;40.20
4376;DHT22;2202;50.866;12.750;2023-06-14T09:17:32;21.10;41.70
4376;DHT22;2202;50.866;12.750;2023-06-14T09:20:00;21.20;42.20
4376;DHT22;2202;50.866;12.750;2023-06-14T09:22:30;21.60;40.60
4376;DHT22;2202;50.866;12.750;2023-06-14T09:24:57;22.00;40.90
4376;DHT22;2202;50.866;12.750;2023-06-14T09:27:27;21.80;40.20
4376;DHT22;2202;50.866;12.750;2023-06-14T09:29:53;21.70;37.20
4376;DHT22;2202;50.866;12.750;2023-06-14T09:32:21;21.40;41.70
4376;DHT22;2202;50.866;12.750;2023-06-14T09:34:48;21.60;41.70
4376;DHT22;2202;50.866;12.750;2023-06-14T09:37:27;21.80;40.90
4376;DHT22;2202;50.866;12.750;2023-06-14T09:39:53;21.90;40.40
4376;DHT22;2202;50.866;12.750;2023-06-14T09:42:21;21.60;38.50
4376;DHT22;2202;50.866;12.750;2023-06-14T09:44:50;21.40;43.40
4376;DHT22;2202;50.866;12.750;2023-06-14T09:47:18;21.10;39.70
4376;DHT22;2202;50.866;12.750;2023-06-14T09:49:45;20.90;40.20
4376;DHT22;2202;50.866;12.750;2023-06-14T09:52:14;20.80;42.90
4376;DHT22;2202;50.866;12.750;2023-06-14T09:54:43;21.00;39.70
4376;DHT22;2202;50.866;12.750;2023-06-14T09:57:12;20.90;41.50
4376;DHT22;2202;50.866;12.750;2023-06-14T09:59:41;21.10;41.70
4376;DHT22;2202;50.866;12.750;2023-06-14T10:02:22;21.10;42.20
4376;DHT22;2202;50.866;12.750;2023-06-14T10:04:55;21.20;47.20
4376;DHT22;2202;50.866;12.750;2023-06-14T10:07:26;21.50;39.50
4376;DHT22;2202;50.866;12.750;2023-06-14T10:09:56;21.40;40.20
4376;DHT22;2202;50.866;12.750;2023-06-14T10:12:23;21.40;40.80
4376;DHT22;2202;50.866;12.750;2023-06-14T10:14:51;20.90;42.00
4376;DHT22;2202;50.866;12.750;2023-06-14T10:17:27;20.70;43.60
4376;DHT22;2202;50.866;12.750;2023-06-14T10:20:10;21.10;42.50
4376;DHT22;2202;50.866;12.750;2023-06-14T10:22:44;21.10;44.00
4376;DHT22;2202;50.866;12.750;2023-06-14T10:25:26;21.20;44.80
4376;DHT22;2202;50.866;12.750;2023-06-14T10:27:53;21.60;44.30
4376;DHT22;2202;50.866;12.750;2023-06-14T10:30:28;21.90;39.90
4376;DHT22;2202;50.866;12.750;2023-06-14T10:33:07;21.80;40.20
4376;DHT22;2202;50.866;12.750;2023-06-14T10:35:35;21.90;39.30
4376;DHT22;2202;50.866;12.750;2023-06-14T10:38:09;21.80;43.20
4376;DHT22;2202;50.866;12.750;2023-06-14T10:40:36;21.80;39.70
4376;DHT22;2202;50.866;12.750;2023-06-14T10:43:21;21.50;40.20
4376;DHT22;2202;50.866;12.750;2023-06-14T10:46:15;21.20;40.80
4376;DHT22;2202;50.866;12.750;2023-06-14T10:48:44;20.80;43.40
4376;DHT22;2202;50.866;12.750;2023-06-14T10:51:21;20.90;47.90
4376;DHT22;2202;50.866;12.750;2023-06-14T10:53:48;21.10;42.20
4376;DHT22;2202;50.866;12.750;2023-06-14T10:56:27;20.90;42.20
4376;DHT22;2202;50.866;12.750;2023-06-14T10:58:54;21.00;43.60
4376;DHT22;2202;50.866;12.750;2023-06-14T11:01:32;21.20;43.20
4376;DHT22;2202;50.866;12.750;2023-06-14T11:04:08;21.60;43.40
4376;DHT22;2202;50.866;12.750;2023-06-14T11:06:46;22.10;41.50
4376;DHT22;2202;50.866;12.750;2023-06-14T11:09:38;22.50;40.60
4376;DHT22;2202;50.866;12.750;2023-06-14T11:12:10;22.30;37.90
4376;DHT22;2202;50.866;12.750;2023-06-14T11:14:38;22.20;37.90
4376;DHT22;2202;50.866;12.750;2023-06-14T11:17:06;22.40;35.30
4376;DHT22;2202;50.866;12.750;2023-06-14T11:19:34;22.30;38.60
4376;DHT22;2202;50.866;12.750;2023-06-14T11:22:01;22.20;38.10
4376;DHT22;2202;50.866;12.750;2023-06-14T11:24:28;22.20;34.20
4376;DHT22;2202;50.866;12.750;2023-06-14T11:26:55;22.30;32.10
4376;DHT22;2202;50.866;12.750;2023-06-14T11:29:23;22.40;34.90
4376;DHT22;2202;50.866;12.750;2023-06-14T11:31:51;22.70;35.10
4376;DHT22;2202;50.866;12.750;2023-06-14T11:34:18;23.10;34.70
4376;DHT22;2202;50.866;12.750;2023-06-14T11:36:47;23.40;38.10
4376;DHT22;2202;50.866;12.750;2023-06-14T11:39:14;23.10;34.00
4376;DHT22;2202;50.866;12.750;2023-06-14T11:41:42;22.90;34.20
4376;DHT22;2202;50.866;12.750;2023-06-14T11:44:10;22.70;34.70
4376;DHT22;2202;50.866;12.750;2023-06-14T11:46:37;22.50;36.30
4376;DHT22;2202;50.866;12.750;2023-06-14T11:49:04;22.50;34.40
4376;DHT22;2202;50.866;12.750;2023-06-14T11:51:35;22.20;36.70
4376;DHT22;2202;50.866;12.750;2023-06-14T11:54:04;21.90;43.20
4376;DHT22;2202;50.866;12.750;2023-06-14T11:56:32;22.30;39.20
4376;DHT22;2202;50.866;12.750;2023-06-14T11:58:59;22.80;37.20
4376;DHT22;2202;50.866;12.750;2023-06-14T12:01:26;23.00;33.80
4376;DHT22;2202;50.866;12.750;2023-06-14T12:03:54;22.90;38.10
4376;DHT22;2202;50.866;12.750;2023-06-14T12:06:28;22.90;34.90
4376;DHT22;2202;50.866;12.750;2023-06-14T12:08:58;22.60;36.90
4376;DHT22;2202;50.866;12.750;2023-06-14T12:11:33;22.80;34.90
4376;DHT22;2202;50.866;12.750;2023-06-14T12:14:00;22.90;35.40
4376;DHT22;2202;50.866;12.750;2023-06-14T12:16:31;23.10;36.10
4376;DHT22;2202;50.866;12.750;2023-06-14T12:19:01;23.10;34.60
4376;DHT22;2202;50.866;12.750;2023-06-14T12:21:28;23.00;33.70
4376;DHT22;2202;50.866;12.750;2023-06-14T12:23:55;22.80;33.30
4376;DHT22;2202;50.866;12.750;2023-06-14T12:26:24;22.90;35.60
4376;DHT22;2202;50.866;12.750;2023-06-14T12:28:54;23.10;33.50
4376;DHT22;2202;50.866;12.750;2023-06-14T12:31:21;22.80;34.00
4376;DHT22;2202;50.866;12.750;2023-06-14T12:33:48;22.60;35.80
4376;DHT22;2202;50.866;12.750;2023-06-14T12:36:15;22.60;33.70
4376;DHT22;2202;50.866;12.750;2023-06-14T12:38:43;22.60;36.30
4376;DHT22;2202;50.866;12.750;2023-06-14T12:41:11;22.60;34.60
4376;DHT22;2202;50.866;12.750;2023-06-14T12:43:39;22.50;35.10
4376;DHT22;2202;50.866;12.750;2023-06-14T12:46:08;22.30;37.40
4376;DHT22;2202;50.866;12.750;2023-06-14T12:48:34;22.70;38.30
4376;DHT22;2202;50.866;12.750;2023-06-14T12:51:01;22.90;36.10
4376;DHT22;2202;50.866;12.750;2023-06-14T12:53:28;22.70;36.10
4376;DHT22;2202;50.866;12.750;2023-06-14T12:55:55;22.60;37.90
4376;DHT22;2202;50.866;12.750;2023-06-14T12:58:22;22.60;37.70
4376;DHT22;2202;50.866;12.750;2023-06-14T13:00:49;22.80;37.20
4376;DHT22;2202;50.866;12.750;2023-06-14T13:03:17;22.80;36.00
4376;DHT22;2202;50.866;12.750;2023-06-14T13:05:44;22.50;37.60
4376;DHT22;2202;50.866;12.750;2023-06-14T13:08:11;22.50;37.20
4376;DHT22;2202;50.866;12.750;2023-06-14T13:10:38;22.40;36.50
4376;DHT22;2202;50.866;12.750;2023-06-14T13:13:05;22.30;35.60
4376;DHT22;2202;50.866;12.750;2023-06-14T13:15:33;22.00;36.90
4376;DHT22;2202;50.866;12.750;2023-06-14T13:18:00;22.00;37.90
4376;DHT22;2202;50.866;12.750;2023-06-14T13:20:30;22.30;38.50
4376;DHT22;2202;50.866;12.750;2023-06-14T13:22:56;22.80;34.20
4376;DHT22;2202;50.866;12.750;2023-06-14T13:25:23;23.00;36.30
4376;DHT22;2202;50.866;12.750;2023-06-14T13:27:50;23.50;33.80
4376;DHT22;2202;50.866;12.750;2023-06-14T13:30:17;23.70;33.10
4376;DHT22;2202;50.866;12.750;2023-06-14T13:32:44;23.90;32.10
4376;DHT22;2202;50.866;12.750;2023-06-14T13:35:11;23.70;34.70
4376;DHT22;2202;50.866;12.750;2023-06-14T13:37:39;23.50;31.50
4376;DHT22;2202;50.866;12.750;2023-06-14T13:40:07;23.50;32.40
4376;DHT22;2202;50.866;12.750;2023-06-14T13:42:34;23.20;31.90
4376;DHT22;2202;50.866;12.750;2023-06-14T14:31:50;22.50;42.70
4376;DHT22;2202;50.866;12.750;2023-06-14T14:34:17;22.70;36.90
4376;DHT22;2202;50.866;12.750;2023-06-14T14:36:43;22.60;37.40
4376;DHT22;2202;50.866;12.750;2023-06-14T14:39:10;22.40;41.50
4376;DHT22;2202;50.866;12.750;2023-06-14T14:41:37;22.50;37.70
4376;DHT22;2202;50.866;12.750;2023-06-14T14:44:07;22.00;40.40
4376;DHT22;2202;50.866;12.750;2023-06-14T14:46:33;22.00;39.50
4376;DHT22;2202;50.866;12.750;2023-06-14T14:49:00;22.00;41.10
4376;DHT22;2202;50.866;12.750;2023-06-14T14:51:28;22.10;41.80
4376;DHT22;2202;50.866;12.750;2023-06-14T14:53:55;22.20;39.00
4376;DHT22;2202;50.866;12.750;2023-06-14T14:56:22;22.00;40.40
4376;DHT22;2202;50.866;12.750;2023-06-14T14:58:49;21.90;41.70
4376;DHT22;2202;50.866;12.750;2023-06-14T15:01:18;22.00;42.90
4376;DHT22;2202;50.866;12.750;2023-06-14T15:03:44;22.20;41.70
4376;DHT22;2202;50.866;12.750;2023-06-14T15:06:11;22.00;45.00
4376;DHT22;2202;50.866;12.750;2023-06-14T15:08:38;22.20;42.70
4376;DHT22;2202;50.866;12.750;2023-06-14T15:11:05;22.30;43.40
4376;DHT22;2202;50.866;12.750;2023-06-14T15:13:32;22.10;44.70
4376;DHT22;2202;50.866;12.750;2023-06-14T15:15:59;21.50;46.80
4376;DHT22;2202;50.866;12.750;2023-06-14T15:18:27;21.10;48.60
4376;DHT22;2202;50.866;12.750;2023-06-14T15:20:54;21.00;48.80
4376;DHT22;2202;50.866;12.750;2023-06-14T15:23:21;21.20;48.00
4376;DHT22;2202;50.866;12.750;2023-06-14T15:25:47;21.50;45.70
4376;DHT22;2202;50.866;12.750;2023-06-14T15:28:14;21.60;44.80
4376;DHT22;2202;50.866;12.750;2023-06-14T15:30:41;21.70;44.00
4376;DHT22;2202;50.866;12.750;2023-06-14T15:33:08;21.60;44.10
4376;DHT22;2202;50.866;12.750;2023-06-14T15:35:36;21.50;45.70
4376;DHT22;2202;50.866;12.750;2023-06-14T15:38:03;21.50;44.00
4376;DHT22;2202;50.866;12.750;2023-06-14T15:40:30;21.50;44.70
4376;DHT22;2202;50.866;12.750;2023-06-14T15:42:57;21.50;41.50
4376;DHT22;2202;50.866;12.750;2023-06-14T15:45:24;21.40;45.00
4376;DHT22;2202;50.866;12.750;2023-06-14T15:47:51;21.40;46.40
4376;DHT22;2202;50.866;12.750;2023-06-14T15:50:17;21.50;45.70
4376;DHT22;2202;50.866;12.750;2023-06-14T15:52:46;21.60;45.60
4376;DHT22;2202;50.866;12.750;2023-06-14T15:55:13;21.90;46.40
4376;DHT22;2202;50.866;12.750;2023-06-14T15:57:39;21.80;44.50
4376;DHT22;2202;50.866;12.750;2023-06-14T16:00:07;21.50;45.20
4376;DHT22;2202;50.866;12.750;2023-06-14T16:02:35;21.40;43.60
4376;DHT22;2202;50.866;12.750;2023-06-14T16:05:01;21.30;44.00
4376;DHT22;2202;50.866;12.750;2023-06-14T16:07:28;21.50;42.70
4376;DHT22;2202;50.866;12.750;2023-06-14T16:09:57;21.40;39.90
4376;DHT22;2202;50.866;12.750;2023-06-14T16:12:23;21.30;43.20
4376;DHT22;2202;50.866;12.750;2023-06-14T16:14:50;21.40;43.80
4376;DHT22;2202;50.866;12.750;2023-06-14T16:17:17;21.40;44.30
4376;DHT22;2202;50.866;12.750;2023-06-14T16:19:44;21.30;44.50
4376;DHT22;2202;50.866;12.750;2023-06-14T16:22:11;21.10;45.90
4376;DHT22;2202;50.866;12.750;2023-06-14T16:24:38;21.00;48.20
4376;DHT22;2202;50.866;12.750;2023-06-14T16:27:06;21.00;47.30
4376;DHT22;2202;50.866;12.750;2023-06-14T16:29:34;20.90;47.50
4376;DHT22;2202;50.866;12.750;2023-06-14T16:32:02;21.00;48.20
4376;DHT22;2202;50.866;12.750;2023-06-14T16:34:28;21.20;48.40
4376;DHT22;2202;50.866;12.750;2023-06-14T16:36:56;21.30;46.80
4376;DHT22;2202;50.866;12.750;2023-06-14T16:39:23;21.30;47.70
4376;DHT22;2202;50.866;12.750;2023-06-14T16:41:50;21.20;45.20